Time;durP1;ratioP1;P1;durP2;ratioP2;P2;SDS_P1;SDS_P2;PMS_P1;PMS_P2;Temp;Humidity;BMP_temperature;BMP_pressure;BME280_temperature;BME280_humidity;BME280_pressure;Samples;Min_cycle;Max_cycle;Signal;HPM_P1;HPM_P2
2021/07/12 00:00:57;;;;;;;3.28;2.35;;;30.30;99.90;;;;;;5035091;28;20236;-96
2021/07/12 00:03:29;;;;;;;3.20;2.10;;;30.20;99.90;;;;;;5048446;28;20209;-96
2021/07/12 00:06:00;;;;;;;3.40;2.30;;;30.30;99.90;;;;;;5040920;28;20291;-96
2021/07/12 00:08:33;;;;;;;6.83;2.50;;;30.30;99.90;;;;;;5036988;28;20217;-96
2021/07/12 00:11:08;;;;;;;6.87;2.53;;;30.10;99.90;;;;;;5036660;28;20292;-96
2021/07/12 00:13:43;;;;;;;4.77;2.40;;;30.00;99.90;;;;;;5037366;28;20272;-96
2021/07/12 00:16:15;;;;;;;3.50;2.20;;;30.10;99.90;;;;;;5036568;28;20220;-96
2021/07/12 00:18:46;;;;;;;3.33;2.20;;;30.10;99.90;;;;;;5036528;28;20296;-96
2021/07/12 00:21:18;;;;;;;2.77;2.57;;;30.10;99.90;;;;;;5019768;28;20713;-96
2021/07/12 00:23:50;;;;;;;4.37;2.90;;;29.90;99.90;;;;;;5018856;28;20676;-96
2021/07/12 00:26:22;;;;;;;2.47;2.27;;;29.70;99.90;;;;;;5036608;28;20221;-96
2021/07/12 00:28:55;;;;;;;5.47;2.40;;;29.50;99.90;;;;;;5035493;28;20288;-96
2021/07/12 00:31:26;;;;;;;6.20;2.60;;;29.50;99.90;;;;;;5025023;28;20213;-96
2021/07/12 00:33:58;;;;;;;3.43;2.50;;;29.60;99.90;;;;;;5036663;28;20205;-96
2021/07/12 00:36:29;;;;;;;3.90;2.27;;;29.70;99.90;;;;;;5039638;28;20228;-96
2021/07/12 00:39:02;;;;;;;2.73;2.10;;;29.60;99.90;;;;;;5038113;28;20239;-96
2021/07/12 00:41:34;;;;;;;2.97;2.30;;;29.30;99.90;;;;;;5035478;28;20270;-96
2021/07/12 00:44:08;;;;;;;4.53;2.60;;;29.10;99.90;;;;;;5037413;28;20205;-96
2021/07/12 00:46:40;;;;;;;7.00;2.63;;;29.10;99.90;;;;;;5038245;28;20240;-96
2021/07/12 00:49:11;;;;;;;6.13;2.43;;;29.00;99.90;;;;;;5039749;28;20292;-96
2021/07/12 00:51:42;;;;;;;4.80;2.40;;;29.10;99.90;;;;;;5039197;28;20235;-95
2021/07/12 00:54:14;;;;;;;5.17;2.33;;;29.00;99.90;;;;;;5057523;28;20263;-96
2021/07/12 00:56:45;;;;;;;4.27;2.27;;;28.90;99.90;;;;;;5057603;28;20289;-96
2021/07/12 00:59:20;;;;;;;5.47;2.50;;;29.10;99.90;;;;;;5055674;28;20220;-96
2021/07/12 01:01:51;;;;;;;5.03;2.37;;;29.60;99.90;;;;;;5036426;28;20232;-96
2021/07/12 01:04:23;;;;;;;2.37;2.07;;;30.30;99.90;;;;;;5036915;28;20213;-96
2021/07/12 01:06:55;;;;;;;3.47;2.23;;;30.70;99.90;;;;;;5037896;28;20208;-96
2021/07/12 01:09:26;;;;;;;4.37;2.10;;;31.10;99.70;;;;;;5037221;28;20300;-96
2021/07/12 01:12:06;;;;;;;2.83;1.80;;;31.10;99.90;;;;;;5035811;28;20204;-96
2021/07/12 01:14:50;;;;;;;2.23;2.03;;;31.40;99.80;;;;;;5038708;28;20299;-96
2021/07/12 01:17:26;;;;;;;2.30;2.00;;;31.60;99.50;;;;;;5037518;28;20319;-95
2021/07/12 01:20:34;;;;;;;3.13;1.73;;;31.60;99.40;;;;;;5040852;28;20208;-94
2021/07/12 01:23:24;;;;;;;4.00;2.00;;;31.60;99.80;;;;;;5033274;28;20212;-95
2021/07/12 01:26:32;;;;;;;3.35;1.92;;;31.80;98.70;;;;;;5043188;28;20240;-95
2021/07/12 01:29:32;;;;;;;3.63;2.00;;;31.60;98.60;;;;;;5038305;28;20277;-96
2021/07/12 01:32:36;;;;;;;2.92;2.05;;;31.40;99.40;;;;;;5043804;28;20196;-95
2021/07/12 01:35:17;;;;;;;3.63;1.57;;;31.50;98.90;;;;;;5046074;28;20200;-96
2021/07/12 01:38:00;;;;;;;3.10;2.10;;;31.40;98.40;;;;;;5044135;28;20323;-96
2021/07/12 01:40:42;;;;;;;8.97;2.77;;;31.80;98.10;;;;;;5028838;28;20219;-95
2021/07/12 01:43:26;;;;;;;3.25;1.80;;;32.10;98.00;;;;;;5026121;28;20299;-96
2021/07/12 01:46:03;;;;;;;3.55;1.80;;;32.10;97.90;;;;;;5051394;28;20234;-95
2021/07/12 01:48:52;;;;;;;2.27;1.70;;;32.20;97.70;;;;;;5060175;28;20196;-96
2021/07/12 01:51:31;;;;;;;2.35;1.65;;;31.90;98.20;;;;;;5043721;28;20283;-96
2021/07/12 01:54:10;;;;;;;2.70;1.87;;;32.00;97.70;;;;;;5058852;28;20204;-94
2021/07/12 01:56:46;;;;;;;4.38;1.90;;;31.60;97.80;;;;;;5043384;28;20208;-95
2021/07/12 01:59:23;;;;;;;3.43;1.93;;;31.90;98.00;;;;;;5055071;28;20232;-95
2021/07/12 02:01:56;;;;;;;2.47;1.60;;;31.80;97.90;;;;;;5047923;28;20231;-96
2021/07/12 02:04:31;;;;;;;1.80;1.60;;;31.80;96.90;;;;;;5050061;28;20207;-94
2021/07/12 02:07:06;;;;;;;2.25;2.00;;;31.90;97.80;;;;;;5057993;28;20231;-96
2021/07/12 02:09:39;;;;;;;3.63;2.13;;;32.20;97.30;;;;;;5043155;28;20184;-96
2021/07/12 02:12:12;;;;;;;3.90;1.80;;;32.30;96.60;;;;;;5042579;28;20200;-96
2021/07/12 02:14:44;;;;;;;3.95;1.85;;;32.00;96.70;;;;;;5059770;28;20295;-96
2021/07/12 02:17:17;;;;;;;3.83;1.70;;;31.60;97.10;;;;;;5059567;28;20213;-96
2021/07/12 02:19:50;;;;;;;2.07;1.90;;;31.60;97.70;;;;;;5059015;28;20224;-96
2021/07/12 02:22:25;;;;;;;2.15;1.70;;;31.90;97.10;;;;;;5046586;28;20233;-96
2021/07/12 02:24:58;;;;;;;4.03;2.20;;;32.10;96.60;;;;;;5040516;28;20260;-94
2021/07/12 02:27:32;;;;;;;4.45;1.70;;;31.70;97.20;;;;;;5039492;28;20539;-95
2021/07/12 02:30:06;;;;;;;3.42;1.60;;;31.20;97.40;;;;;;5039020;28;20244;-91
2021/07/12 02:32:38;;;;;;;7.57;1.60;;;30.80;98.00;;;;;;5039313;28;20217;-96
2021/07/12 02:35:13;;;;;;;3.72;2.00;;;30.50;97.90;;;;;;5039403;28;20287;-96
2021/07/12 02:37:49;;;;;;;3.97;1.70;;;30.30;98.40;;;;;;5039051;28;20743;-96
2021/07/12 02:40:22;;;;;;;3.13;2.07;;;29.80;99.20;;;;;;5037744;28;20232;-96
2021/07/12 02:45:42;;;;;;;3.27;1.73;;;28.20;99.80;;;;;;5038432;28;20227;-95
2021/07/12 02:48:14;;;;;;;1.77;1.60;;;27.50;99.90;;;;;;5024601;28;20204;-92
2021/07/12 02:50:47;;;;;;;2.70;1.93;;;27.00;99.90;;;;;;5037995;28;20239;-95
2021/07/12 02:53:24;;;;;;;2.63;1.80;;;26.60;99.90;;;;;;5031573;28;20276;-96
2021/07/12 02:55:56;;;;;;;1.73;1.63;;;26.10;99.90;;;;;;5057798;28;20240;-95
2021/07/12 02:58:30;;;;;;;3.23;2.03;;;25.70;99.90;;;;;;5058169;28;20326;-96
2021/07/12 03:01:02;;;;;;;2.80;2.00;;;25.50;99.90;;;;;;5040010;28;20625;-96
2021/07/12 03:03:33;;;;;;;3.57;1.83;;;25.40;99.90;;;;;;5058323;28;20208;-95
2021/07/12 03:06:11;;;;;;;3.73;2.10;;;25.20;99.90;;;;;;5058688;28;20231;-96
2021/07/12 03:08:55;;;;;;;2.73;2.13;;;25.00;99.90;;;;;;5057260;28;20212;-95
2021/07/12 03:11:33;;;;;;;1.83;1.73;;;24.90;99.90;;;;;;5056494;28;20224;-95
2021/07/12 03:14:13;;;;;;;3.70;2.13;;;24.80;99.90;;;;;;5057562;28;20208;-95
2021/07/12 03:16:48;;;;;;;3.10;1.60;;;24.60;99.90;;;;;;5057979;28;20302;-95
2021/07/12 03:19:27;;;;;;;1.80;1.70;;;24.40;99.90;;;;;;5057829;28;20704;-95
2021/07/12 03:25:03;;;;;;;1.70;1.60;;;24.20;99.90;;;;;;5058487;28;20235;-95
2021/07/12 03:27:35;;;;;;;4.43;2.23;;;24.10;99.90;;;;;;5041495;28;20287;-96
2021/07/12 03:30:08;;;;;;;2.23;1.70;;;24.00;99.90;;;;;;5046849;28;20296;-95
2021/07/12 03:32:39;;;;;;;4.17;2.10;;;23.90;99.90;;;;;;5037986;28;20233;-95
2021/07/12 03:35:12;;;;;;;5.60;1.90;;;23.70;99.90;;;;;;5038210;28;20626;-96
2021/07/12 03:37:44;;;;;;;2.13;1.57;;;23.60;99.90;;;;;;5019683;28;20255;-96
2021/07/12 03:40:20;;;;;;;2.23;1.50;;;23.50;99.90;;;;;;5036202;28;20213;-96
2021/07/12 03:42:51;;;;;;;2.33;1.80;;;23.30;99.90;;;;;;5036655;28;20216;-95
2021/07/12 03:45:23;;;;;;;2.10;1.60;;;23.30;99.90;;;;;;5036750;28;20598;-95
2021/07/12 03:47:54;;;;;;;2.30;1.50;;;23.10;99.90;;;;;;5038088;28;20212;-94
2021/07/12 03:50:28;;;;;;;3.57;1.87;;;23.00;99.90;;;;;;5036820;28;20673;-95
2021/07/12 03:53:06;;;;;;;2.40;1.60;;;22.90;99.90;;;;;;5036643;28;20208;-95
2021/07/12 03:55:41;;;;;;;2.57;1.60;;;22.80;99.90;;;;;;5037086;28;20197;-96
2021/07/12 03:58:15;;;;;;;2.17;1.57;;;22.70;99.90;;;;;;5036173;28;20646;-95
2021/07/12 04:00:48;;;;;;;4.03;1.90;;;22.50;99.90;;;;;;4989344;28;20244;-95
2021/07/12 04:03:23;;;;;;;3.00;1.63;;;22.40;99.90;;;;;;5037083;28;20216;-95
2021/07/12 04:05:54;;;;;;;3.37;1.67;;;22.30;99.90;;;;;;5036490;28;20678;-96
2021/07/12 04:08:27;;;;;;;4.23;1.80;;;22.10;99.90;;;;;;5019919;28;20244;-95
2021/07/12 04:11:00;;;;;;;3.20;1.90;;;22.10;99.90;;;;;;5036067;28;20576;-95
2021/07/12 04:13:31;;;;;;;5.10;1.60;;;21.90;99.90;;;;;;5036371;28;20209;-93
2021/07/12 04:16:02;;;;;;;4.57;1.70;;;21.80;99.90;;;;;;5016092;28;20223;-95
2021/07/12 04:18:34;;;;;;;3.40;1.60;;;21.70;99.90;;;;;;5052756;28;20252;-95
2021/07/12 04:21:06;;;;;;;2.40;1.40;;;21.60;99.90;;;;;;5056447;28;20276;-95
2021/07/12 04:23:37;;;;;;;2.13;1.43;;;21.50;99.90;;;;;;5056475;28;20208;-95
2021/07/12 04:26:12;;;;;;;2.93;1.50;;;21.30;99.90;;;;;;5038451;28;20209;-96
2021/07/12 04:28:46;;;;;;;2.63;1.50;;;21.20;99.90;;;;;;5038523;28;20572;-96
2021/07/12 04:31:19;;;;;;;3.33;1.87;;;21.10;99.90;;;;;;5037577;28;20240;-96
2021/07/12 04:33:50;;;;;;;5.00;2.07;;;21.00;99.90;;;;;;5036211;28;20237;-95
2021/07/12 04:36:21;;;;;;;2.43;1.40;;;20.90;99.90;;;;;;5027604;28;20674;-96
2021/07/12 04:38:53;;;;;;;2.67;1.60;;;20.80;99.90;;;;;;5041372;28;20284;-95
2021/07/12 04:41:28;;;;;;;2.70;1.40;;;20.80;99.90;;;;;;5019728;28;20236;-96
2021/07/12 04:43:59;;;;;;;2.10;1.77;;;20.70;99.90;;;;;;5044630;28;20223;-96
2021/07/12 04:46:35;;;;;;;3.03;1.67;;;20.60;99.90;;;;;;5056512;28;20184;-96
2021/07/12 04:49:11;;;;;;;1.70;1.40;;;20.60;99.90;;;;;;5056490;28;20197;-96
2021/07/12 04:51:44;;;;;;;2.53;1.40;;;20.50;99.90;;;;;;5054611;28;20212;-96
2021/07/12 04:54:17;;;;;;;3.40;1.50;;;20.40;99.90;;;;;;5073266;28;20230;-96
2021/07/12 04:56:51;;;;;;;2.83;1.53;;;20.30;99.90;;;;;;5052676;28;20213;-96
2021/07/12 04:59:26;;;;;;;3.23;1.70;;;20.20;99.90;;;;;;5051397;28;20225;-95
2021/07/12 05:01:57;;;;;;;2.40;1.63;;;20.10;99.90;;;;;;5042944;28;20231;-96
2021/07/12 05:04:28;;;;;;;7.00;1.90;;;20.10;99.90;;;;;;5045592;28;20228;-96
2021/07/12 05:06:59;;;;;;;3.87;1.90;;;20.10;99.90;;;;;;5042565;28;20208;-96
2021/07/12 05:09:40;;;;;;;4.50;2.43;;;19.90;99.90;;;;;;5039996;28;20212;-94
2021/07/12 05:12:18;;;;;;;5.90;2.60;;;19.80;99.90;;;;;;5039079;28;20209;-96
2021/07/12 05:14:51;;;;;;;4.17;2.30;;;19.70;99.90;;;;;;5044956;28;20195;-95
2021/07/12 05:17:23;;;;;;;4.77;1.93;;;19.60;99.90;;;;;;5062738;28;20216;-95
2021/07/12 05:19:54;;;;;;;3.67;2.20;;;19.50;99.90;;;;;;5053852;28;20252;-95
2021/07/12 05:22:26;;;;;;;7.33;1.80;;;19.50;99.90;;;;;;5041104;28;20212;-94
2021/07/12 05:25:02;;;;;;;3.33;2.07;;;19.40;99.90;;;;;;5025616;28;20299;-94
2021/07/12 05:27:38;;;;;;;2.87;1.90;;;19.30;99.90;;;;;;5042213;28;20243;-94
2021/07/12 05:30:10;;;;;;;3.90;1.63;;;19.30;99.90;;;;;;5041448;28;20650;-94
2021/07/12 05:32:42;;;;;;;3.63;2.27;;;19.20;99.90;;;;;;5059459;28;20235;-95
2021/07/12 05:35:14;;;;;;;3.20;1.97;;;19.10;99.90;;;;;;5063592;28;20207;-95
2021/07/12 05:37:45;;;;;;;3.17;2.00;;;19.00;99.90;;;;;;5079889;28;20216;-96
2021/07/12 05:40:17;;;;;;;2.80;1.77;;;19.00;99.90;;;;;;5066388;28;20232;-95
2021/07/12 05:42:51;;;;;;;7.60;2.27;;;18.90;99.90;;;;;;5077248;28;20224;-95
2021/07/12 05:45:24;;;;;;;3.00;1.70;;;18.80;99.90;;;;;;5062597;28;20204;-95
2021/07/12 05:47:55;;;;;;;3.87;2.00;;;18.80;99.90;;;;;;5069590;28;20272;-95
2021/07/12 05:50:26;;;;;;;2.90;1.97;;;18.70;99.90;;;;;;5061313;28;20299;-95
2021/07/12 05:52:57;;;;;;;2.30;2.00;;;18.70;99.90;;;;;;5059569;28;20239;-95
2021/07/12 05:55:29;;;;;;;2.77;1.87;;;18.80;99.90;;;;;;5057104;28;20651;-96
2021/07/12 05:58:03;;;;;;;3.43;1.93;;;18.70;99.90;;;;;;5045972;28;20224;-96
2021/07/12 06:00:34;;;;;;;4.63;2.37;;;18.70;99.90;;;;;;5047110;28;20228;-95
2021/07/12 06:03:06;;;;;;;4.60;2.30;;;18.60;99.90;;;;;;5039058;28;20592;-94
2021/07/12 06:05:38;;;;;;;4.03;2.60;;;18.60;99.90;;;;;;5024190;28;20233;-95
2021/07/12 06:08:09;;;;;;;5.13;2.27;;;18.40;99.90;;;;;;5041392;28;20189;-96
2021/07/12 06:10:41;;;;;;;4.20;2.30;;;18.40;99.90;;;;;;5048648;28;20196;-95
2021/07/12 06:13:14;;;;;;;4.63;2.60;;;18.30;99.90;;;;;;5059078;28;20228;-94
2021/07/12 06:15:48;;;;;;;4.83;2.30;;;18.30;99.90;;;;;;5057152;28;20208;-94
2021/07/12 06:18:19;;;;;;;3.00;2.10;;;18.20;99.90;;;;;;5021497;28;20291;-94
2021/07/12 06:20:51;;;;;;;3.57;2.07;;;18.20;99.90;;;;;;5036495;28;20228;-94
2021/07/12 06:23:24;;;;;;;4.67;2.30;;;18.10;99.90;;;;;;5037563;28;20205;-94
2021/07/12 06:25:56;;;;;;;3.47;1.97;;;18.10;99.90;;;;;;5042285;28;20296;-93
2021/07/12 06:28:28;;;;;;;5.60;2.33;;;18.00;99.90;;;;;;5057450;28;20259;-94
2021/07/12 06:30:59;;;;;;;6.20;2.17;;;18.00;99.90;;;;;;5037538;28;20263;-93
2021/07/12 06:33:31;;;;;;;3.60;2.43;;;18.00;99.90;;;;;;5039395;28;20208;-93
2021/07/12 06:36:03;;;;;;;4.70;2.63;;;18.00;99.90;;;;;;5022579;28;20662;-93
2021/07/12 06:38:35;;;;;;;4.97;2.60;;;17.90;99.90;;;;;;5030871;28;20292;-93
2021/07/12 06:41:07;;;;;;;4.40;2.70;;;17.80;99.90;;;;;;5055406;28;20247;-93
2021/07/12 06:43:41;;;;;;;5.23;2.37;;;17.70;99.90;;;;;;5059141;28;20243;-93
2021/07/12 06:46:12;;;;;;;7.43;2.60;;;17.70;99.90;;;;;;5048863;28;20212;-94
2021/07/12 06:48:43;;;;;;;3.47;2.30;;;17.60;99.90;;;;;;5049174;28;20284;-93
2021/07/12 06:51:14;;;;;;;3.67;2.10;;;17.60;99.90;;;;;;5044470;28;20205;-94
2021/07/12 06:53:45;;;;;;;6.10;2.37;;;17.50;99.90;;;;;;5040305;28;20273;-94
2021/07/12 06:56:18;;;;;;;5.03;2.00;;;17.60;99.90;;;;;;5038784;28;20213;-94
2021/07/12 06:58:50;;;;;;;3.47;2.20;;;17.60;99.90;;;;;;5038964;28;20236;-94
2021/07/12 07:01:22;;;;;;;4.60;2.23;;;17.50;99.90;;;;;;5037841;28;20374;-94
2021/07/12 07:03:53;;;;;;;5.03;2.27;;;17.50;99.90;;;;;;5021244;28;20341;-94
2021/07/12 07:06:24;;;;;;;8.90;2.70;;;17.40;99.90;;;;;;5038993;28;20247;-94
2021/07/12 07:08:55;;;;;;;4.53;2.20;;;17.40;99.90;;;;;;5040241;28;20235;-95
2021/07/12 07:11:27;;;;;;;3.33;2.43;;;17.40;99.90;;;;;;5039060;28;20228;-94
2021/07/12 07:14:00;;;;;;;5.87;2.63;;;17.30;99.90;;;;;;5041295;28;20216;-94
2021/07/12 07:16:33;;;;;;;4.47;2.50;;;17.20;99.90;;;;;;5041177;28;20201;-93
2021/07/12 07:19:04;;;;;;;5.00;2.20;;;17.20;99.90;;;;;;5041420;28;20201;-92
2021/07/12 07:21:35;;;;;;;8.50;2.60;;;17.20;99.90;;;;;;5039351;28;20240;-94
2021/07/12 07:24:08;;;;;;;3.37;2.43;;;17.10;99.90;;;;;;5039794;28;20220;-94
2021/07/12 07:26:38;;;;;;;2.70;2.00;;;17.10;99.90;;;;;;5041426;28;20307;-94
2021/07/12 07:29:13;;;;;;;2.57;2.13;;;17.10;99.90;;;;;;5043109;28;20209;-93
2021/07/12 07:31:44;;;;;;;4.67;2.23;;;17.00;99.90;;;;;;5031653;28;20236;-93
2021/07/12 07:34:35;;;;;;;7.93;2.50;;;17.00;99.90;;;;;;5058296;28;20272;-94
2021/07/12 07:37:07;;;;;;;4.57;2.10;;;17.00;99.90;;;;;;5041086;28;20204;-94
2021/07/12 07:39:40;;;;;;;4.00;2.10;;;17.00;99.90;;;;;;5058230;28;20208;-94
2021/07/12 07:42:24;;;;;;;4.93;2.40;;;16.90;99.90;;;;;;5042781;28;20188;-94
2021/07/12 07:44:59;;;;;;;6.97;3.00;;;16.90;99.90;;;;;;5056662;28;20193;-93
2021/07/12 07:47:30;;;;;;;7.00;2.70;;;16.80;99.90;;;;;;5045012;28;20294;-92
2021/07/12 07:50:21;;;;;;;4.07;2.17;;;16.70;99.90;;;;;;5052853;28;20193;-93
2021/07/12 07:52:53;;;;;;;4.27;2.50;;;16.70;99.90;;;;;;5055822;28;20216;-94
2021/07/12 07:55:24;;;;;;;3.13;2.30;;;16.60;99.90;;;;;;5055674;28;20209;-94
2021/07/12 07:57:57;;;;;;;4.87;2.57;;;16.60;99.90;;;;;;5040098;28;20283;-95
2021/07/12 08:00:31;;;;;;;4.70;2.47;;;16.60;99.90;;;;;;5036386;28;20236;-94
2021/07/12 08:03:02;;;;;;;5.23;2.60;;;16.50;99.90;;;;;;5036338;28;20247;-94
2021/07/12 08:05:33;;;;;;;4.50;2.57;;;16.60;99.90;;;;;;5035879;28;20320;-95
2021/07/12 08:08:06;;;;;;;5.23;2.50;;;16.50;99.90;;;;;;5020342;28;20212;-95
2021/07/12 08:10:37;;;;;;;6.37;2.43;;;16.50;99.90;;;;;;5036958;28;20320;-94
2021/07/12 08:13:09;;;;;;;6.80;2.60;;;16.50;99.90;;;;;;5044001;28;20229;-94
2021/07/12 08:15:43;;;;;;;5.13;2.87;;;16.40;99.90;;;;;;5035648;28;20213;-93
2021/07/12 08:18:15;;;;;;;4.93;2.53;;;16.50;99.90;;;;;;5050810;28;20257;-94
2021/07/12 08:20:47;;;;;;;4.07;2.37;;;16.50;99.90;;;;;;5044616;28;20316;-94
2021/07/12 08:23:19;;;;;;;4.60;2.70;;;16.50;99.90;;;;;;5035542;28;20216;-93
2021/07/12 08:25:50;;;;;;;5.40;2.60;;;16.40;99.90;;;;;;5049256;28;20232;-94
2021/07/12 08:28:24;;;;;;;3.47;2.73;;;16.30;99.90;;;;;;5035043;28;20654;-93
2021/07/12 08:30:57;;;;;;;3.93;2.50;;;16.30;99.90;;;;;;5034728;28;20729;-93
2021/07/12 08:33:28;;;;;;;5.07;2.40;;;16.30;99.90;;;;;;5015374;28;20220;-94
2021/07/12 08:35:59;;;;;;;4.87;2.83;;;16.20;99.90;;;;;;5015701;28;20241;-93
2021/07/12 08:38:31;;;;;;;4.47;2.50;;;16.20;99.90;;;;;;5015029;28;20229;-94
2021/07/12 08:41:02;;;;;;;4.37;2.40;;;16.20;99.90;;;;;;5027962;28;20240;-93
2021/07/12 08:43:38;;;;;;;5.07;2.80;;;16.10;99.90;;;;;;5025633;28;20216;-93
2021/07/12 08:46:23;;;;;;;5.83;2.80;;;16.00;99.90;;;;;;5035420;28;20213;-94
2021/07/12 08:48:55;;;;;;;4.77;2.60;;;16.00;99.90;;;;;;5035176;28;20204;-94
2021/07/12 08:51:29;;;;;;;5.87;2.53;;;15.90;99.90;;;;;;5034412;28;20284;-93
2021/07/12 08:54:00;;;;;;;4.90;2.40;;;15.90;99.90;;;;;;5035033;28;20237;-94
2021/07/12 08:56:31;;;;;;;6.43;2.70;;;16.00;99.90;;;;;;5018343;28;20240;-94
2021/07/12 08:59:29;;;;;;;4.37;2.83;;;15.90;99.90;;;;;;5053003;28;20228;-94
2021/07/12 09:02:09;;;;;;;6.17;3.00;;;15.90;99.90;;;;;;5064129;28;20254;-94
2021/07/12 09:04:41;;;;;;;6.60;2.80;;;15.90;99.90;;;;;;5058859;28;20188;-93
2021/07/12 09:07:14;;;;;;;6.30;2.50;;;15.80;99.90;;;;;;5073870;28;20234;-93
2021/07/12 09:09:59;;;;;;;3.53;2.47;;;15.80;99.90;;;;;;5042317;28;20292;-94
2021/07/12 09:12:42;;;;;;;5.17;2.77;;;15.80;99.90;;;;;;5048735;28;20205;-93
2021/07/12 09:15:14;;;;;;;3.97;2.70;;;15.80;99.90;;;;;;5039244;28;20219;-94
2021/07/12 09:17:49;;;;;;;5.63;2.70;;;15.70;99.90;;;;;;5052325;28;20204;-92
2021/07/12 09:20:27;;;;;;;3.83;2.23;;;15.60;99.90;;;;;;5058915;28;20215;-93
2021/07/12 09:23:00;;;;;;;4.23;2.47;;;15.60;99.90;;;;;;5040941;28;20232;-93
2021/07/12 09:25:33;;;;;;;5.97;2.90;;;15.60;99.90;;;;;;5043847;28;20763;-92
2021/07/12 09:28:06;;;;;;;5.40;2.60;;;15.60;99.90;;;;;;5061137;28;20226;-93
2021/07/12 09:30:37;;;;;;;4.90;2.50;;;15.60;99.90;;;;;;5042381;28;20213;-93
2021/07/12 09:33:22;;;;;;;5.13;2.60;;;15.50;99.90;;;;;;5018298;28;20581;-94
2021/07/12 09:36:17;;;;;;;4.20;2.40;;;15.40;99.90;;;;;;5035568;28;20212;-94
2021/07/12 09:38:49;;;;;;;5.67;2.60;;;15.40;99.90;;;;;;5035514;28;20296;-94
2021/07/12 09:41:32;;;;;;;5.67;2.60;;;15.30;99.90;;;;;;5043465;28;20661;-94
2021/07/12 09:44:05;;;;;;;4.67;2.23;;;15.30;99.90;;;;;;5053210;28;20212;-94
2021/07/12 09:46:36;;;;;;;4.07;2.43;;;15.20;99.90;;;;;;5037369;28;20635;-94
2021/07/12 09:49:13;;;;;;;4.83;2.50;;;15.20;99.90;;;;;;5037837;28;20296;-94
2021/07/12 09:51:44;;;;;;;5.17;2.50;;;15.10;99.90;;;;;;5033709;28;20228;-94
2021/07/12 09:54:23;;;;;;;5.13;2.63;;;15.10;99.90;;;;;;5034300;28;20243;-94
2021/07/12 09:56:56;;;;;;;5.67;2.90;;;15.10;99.90;;;;;;5037211;28;20288;-95
2021/07/12 09:59:27;;;;;;;4.50;2.70;;;15.10;99.90;;;;;;5038807;28;20308;-94
2021/07/12 10:01:58;;;;;;;4.80;2.67;;;15.00;99.90;;;;;;5037372;28;20228;-94
2021/07/12 10:04:31;;;;;;;4.67;2.60;;;15.10;99.90;;;;;;5038516;28;20714;-95
2021/07/12 10:07:04;;;;;;;7.93;2.97;;;15.00;99.90;;;;;;5045771;28;20201;-94
2021/07/12 10:09:39;;;;;;;5.10;2.60;;;15.00;99.90;;;;;;5039004;28;20220;-95
2021/07/12 10:12:12;;;;;;;5.73;2.57;;;15.00;99.90;;;;;;5043967;28;20571;-94
2021/07/12 10:14:44;;;;;;;3.97;2.30;;;15.00;99.90;;;;;;5020894;28;20204;-94
2021/07/12 10:17:16;;;;;;;4.60;2.60;;;15.00;99.90;;;;;;5038039;28;20216;-94
2021/07/12 10:19:49;;;;;;;4.07;3.07;;;14.90;99.90;;;;;;5045451;28;20239;-94
2021/07/12 10:22:25;;;;;;;5.13;2.87;;;14.90;99.90;;;;;;5037423;28;20324;-94
2021/07/12 10:25:07;;;;;;;3.93;2.67;;;14.90;99.90;;;;;;5039255;28;20209;-94
2021/07/12 10:27:52;;;;;;;4.13;2.13;;;14.90;99.90;;;;;;5038508;28;20295;-93
2021/07/12 10:30:29;;;;;;;4.87;2.70;;;14.90;99.90;;;;;;5050136;28;20232;-93
2021/07/12 10:33:02;;;;;;;4.60;2.60;;;14.90;99.90;;;;;;5048107;28;20208;-94
2021/07/12 10:35:46;;;;;;;5.33;2.70;;;14.80;99.90;;;;;;5050318;28;20287;-94
2021/07/12 10:38:18;;;;;;;4.57;2.70;;;14.90;99.90;;;;;;5057723;28;20232;-93
2021/07/12 10:40:54;;;;;;;6.50;3.00;;;14.70;99.90;;;;;;5039982;28;20243;-93
2021/07/12 10:43:50;;;;;;;6.50;2.90;;;14.70;99.90;;;;;;5035855;28;20228;-94
2021/07/12 10:46:43;;;;;;;5.27;2.97;;;14.80;99.90;;;;;;5041457;28;20293;-94
2021/07/12 10:49:41;;;;;;;3.60;2.73;;;14.70;99.90;;;;;;5038446;28;20205;-94
2021/07/12 10:52:46;;;;;;;4.17;2.43;;;14.70;99.90;;;;;;5030274;28;20213;-93
2021/07/12 10:55:31;;;;;;;4.93;2.77;;;14.70;99.90;;;;;;5018569;28;20272;-93
2021/07/12 10:58:42;;;;;;;5.10;2.83;;;14.60;99.90;;;;;;5021175;28;20233;-94
2021/07/12 11:01:19;;;;;;;5.33;2.83;;;14.60;99.90;;;;;;5027390;28;20300;-94
2021/07/12 11:03:51;;;;;;;5.57;2.53;;;14.60;99.90;;;;;;5037205;28;20255;-95
2021/07/12 11:06:27;;;;;;;5.47;2.80;;;14.60;99.90;;;;;;5043232;28;20466;-94
2021/07/12 11:09:01;;;;;;;6.93;2.40;;;14.60;99.90;;;;;;5056732;28;20632;-93
2021/07/12 11:11:42;;;;;;;5.97;2.70;;;14.60;99.90;;;;;;5039653;28;20245;-94
2021/07/12 11:14:22;;;;;;;3.13;2.37;;;14.60;99.90;;;;;;5020658;28;20301;-94
2021/07/12 11:16:54;;;;;;;6.30;2.60;;;14.60;99.90;;;;;;5057393;28;20226;-94
2021/07/12 11:19:27;;;;;;;3.73;2.63;;;14.50;99.90;;;;;;5054833;28;20204;-94
2021/07/12 11:22:25;;;;;;;5.63;2.40;;;14.40;99.90;;;;;;5042038;28;20276;-94
2021/07/12 11:25:05;;;;;;;2.67;2.20;;;14.50;99.90;;;;;;5058583;28;20220;-92
2021/07/12 11:27:38;;;;;;;6.63;2.83;;;14.40;99.90;;;;;;5057510;28;20204;-93
2021/07/12 11:30:26;;;;;;;3.80;2.50;;;14.40;99.90;;;;;;5042926;28;20228;-93
2021/07/12 11:32:58;;;;;;;4.83;2.60;;;14.40;99.90;;;;;;5044215;28;20209;-92
2021/07/12 11:35:29;;;;;;;5.80;2.67;;;14.40;99.90;;;;;;5027480;28;20201;-93
2021/07/12 11:38:02;;;;;;;4.80;2.63;;;14.30;99.90;;;;;;5038023;28;20335;-93
2021/07/12 11:40:36;;;;;;;6.30;2.50;;;14.30;99.90;;;;;;5039902;28;20212;-93
2021/07/12 11:43:07;;;;;;;3.73;2.00;;;14.30;99.90;;;;;;5055048;28;20246;-93
2021/07/12 11:45:39;;;;;;;7.03;2.73;;;14.30;99.90;;;;;;5036569;28;20209;-93
2021/07/12 11:48:10;;;;;;;6.00;2.47;;;14.30;99.90;;;;;;5042575;28;20228;-93
2021/07/12 11:50:42;;;;;;;3.67;2.67;;;14.30;99.90;;;;;;5056339;28;20201;-93
2021/07/12 11:53:16;;;;;;;4.97;2.67;;;14.20;99.90;;;;;;5057993;28;20295;-93
2021/07/12 11:55:49;;;;;;;4.73;2.60;;;14.20;99.90;;;;;;5057619;28;20212;-93
2021/07/12 11:58:24;;;;;;;4.07;2.20;;;14.20;99.90;;;;;;5056881;28;20242;-93
2021/07/12 12:00:56;;;;;;;5.03;2.47;;;14.20;99.90;;;;;;5065914;28;20231;-92
2021/07/12 12:03:32;;;;;;;6.43;2.60;;;14.20;99.90;;;;;;5071914;28;20243;-92
2021/07/12 12:06:04;;;;;;;3.23;2.33;;;14.10;99.90;;;;;;5056224;28;20304;-92
2021/07/12 12:08:34;;;;;;;4.50;2.80;;;14.10;99.90;;;;;;5045687;28;20232;-93
2021/07/12 12:11:08;;;;;;;5.93;2.70;;;14.10;99.90;;;;;;5020807;28;20961;-92
2021/07/12 12:13:39;;;;;;;4.03;2.50;;;14.10;99.90;;;;;;5037939;28;20295;-93
2021/07/12 12:16:12;;;;;;;6.87;2.60;;;14.00;99.90;;;;;;5056785;28;20212;-93
2021/07/12 12:18:45;;;;;;;5.20;2.40;;;14.00;99.90;;;;;;5055819;28;20212;-93
2021/07/12 12:21:16;;;;;;;5.23;2.30;;;13.90;99.90;;;;;;5055846;28;20277;-94
2021/07/12 12:23:47;;;;;;;3.63;2.60;;;13.90;99.90;;;;;;5045589;28;20320;-93
2021/07/12 12:26:27;;;;;;;3.53;2.47;;;13.90;99.90;;;;;;5036820;28;20288;-93
2021/07/12 12:29:00;;;;;;;5.87;2.60;;;13.90;99.90;;;;;;5036184;28;20336;-94
2021/07/12 12:31:33;;;;;;;4.43;2.47;;;13.80;99.90;;;;;;5026262;28;20216;-93
2021/07/12 12:34:07;;;;;;;6.17;2.63;;;13.80;99.90;;;;;;5037004;28;20569;-94
2021/07/12 12:36:41;;;;;;;4.67;2.57;;;13.80;99.90;;;;;;5019559;28;20209;-93
2021/07/12 12:39:15;;;;;;;4.33;2.30;;;13.80;99.90;;;;;;5051485;28;20200;-93
2021/07/12 12:41:51;;;;;;;5.37;2.87;;;13.80;99.90;;;;;;5038407;28;20299;-93
2021/07/12 12:44:23;;;;;;;4.53;2.70;;;13.80;99.90;;;;;;5056106;28;20278;-94
2021/07/12 12:46:56;;;;;;;6.97;2.57;;;13.80;99.90;;;;;;5017616;28;20209;-93
2021/07/12 12:49:29;;;;;;;7.13;2.33;;;13.80;99.90;;;;;;5019948;28;20352;-93
2021/07/12 12:52:03;;;;;;;6.00;2.50;;;13.70;99.90;;;;;;5036824;28;20220;-93
2021/07/12 12:54:35;;;;;;;6.33;2.30;;;13.90;99.90;;;;;;5022477;28;20243;-93
2021/07/12 12:57:09;;;;;;;6.87;2.57;;;13.90;99.90;;;;;;5074850;28;20231;-92
2021/07/12 12:59:42;;;;;;;4.77;2.30;;;13.90;99.90;;;;;;5074426;28;20199;-93
2021/07/12 13:02:16;;;;;;;3.80;2.47;;;13.90;99.90;;;;;;5053676;28;20200;-94
2021/07/12 13:04:50;;;;;;;4.40;2.57;;;13.90;99.90;;;;;;5058926;28;20281;-93
2021/07/12 13:07:23;;;;;;;5.67;2.70;;;13.90;99.90;;;;;;5076149;28;20214;-94
2021/07/12 13:10:04;;;;;;;3.80;2.40;;;13.90;99.90;;;;;;5036071;28;20212;-94
2021/07/12 13:12:42;;;;;;;6.70;2.60;;;13.90;99.90;;;;;;5017917;28;20630;-94
2021/07/12 13:15:15;;;;;;;4.33;2.43;;;13.90;99.90;;;;;;5016133;28;20213;-95
2021/07/12 13:17:49;;;;;;;8.43;2.63;;;13.90;99.90;;;;;;5018324;28;20273;-94
2021/07/12 13:20:23;;;;;;;7.83;2.20;;;14.00;99.90;;;;;;4999166;28;20287;-94
2021/07/12 13:22:55;;;;;;;6.17;2.47;;;14.00;99.90;;;;;;5015152;28;20702;-93
2021/07/12 13:25:31;;;;;;;5.17;2.70;;;14.00;99.90;;;;;;5015311;28;20305;-93
2021/07/12 13:28:08;;;;;;;5.83;2.73;;;14.00;99.90;;;;;;5014117;28;20296;-93
2021/07/12 13:30:43;;;;;;;5.80;2.70;;;14.00;99.90;;;;;;5016496;28;20642;-93
2021/07/12 13:33:18;;;;;;;5.23;2.50;;;14.10;99.90;;;;;;5030432;28;20211;-93